createdAt,value
2016-07-25T00:00:37.771Z,0
2016-07-25T00:01:38.514Z,0
2016-07-25T00:02:38.547Z,0
2016-07-25T00:03:37.875Z,0
2016-07-25T00:04:37.899Z,0
2016-07-25T00:05:38.638Z,0
2016-07-25T00:06:37.958Z,0
2016-07-25T00:07:37.989Z,0
2016-07-25T00:08:38.021Z,0
2016-07-25T00:09:39.469Z,0
2016-07-25T00:10:38.082Z,0
2016-07-25T00:11:38.823Z,0
2016-07-25T00:12:38.156Z,0
2016-07-25T00:13:38.879Z,0
2016-07-25T00:14:38.202Z,0
2016-07-25T00:15:38.233Z,0
2016-07-25T00:16:38.264Z,0
2016-07-25T00:17:38.296Z,0
2016-07-25T00:18:38.337Z,0
2016-07-25T00:19:38.355Z,0
2016-07-25T00:20:38.389Z,0
2016-07-25T00:21:38.418Z,0
2016-07-25T00:22:39.867Z,0
2016-07-25T00:23:38.477Z,0
2016-07-25T00:24:38.509Z,0
2016-07-25T00:25:38.547Z,0
2016-07-25T00:26:39.288Z,0
2016-07-25T00:27:38.604Z,0
2016-07-25T00:28:38.632Z,0
2016-07-25T00:29:38.682Z,0
2016-07-25T00:30:39.413Z,0
2016-07-25T00:31:38.734Z,0
2016-07-25T00:32:38.756Z,0
2016-07-25T00:33:38.786Z,0
2016-07-25T00:34:38.819Z,0
2016-07-25T00:35:39.557Z,0
2016-07-25T00:36:39.592Z,0
2016-07-25T00:37:39.617Z,0
2016-07-25T00:38:39.648Z,0
2016-07-25T00:39:39.678Z,0
2016-07-25T00:40:38.999Z,0
2016-07-25T00:41:39.032Z,0
2016-07-25T00:42:39.077Z,0
2016-07-25T00:43:39.092Z,0
2016-07-25T00:44:39.120Z,0
2016-07-25T00:45:39.859Z,0
2016-07-25T00:46:39.184Z,0
2016-07-25T00:47:39.922Z,0
2016-07-25T00:48:39.243Z,0
2016-07-25T00:49:40.002Z,0
2016-07-25T00:50:39.314Z,0
2016-07-25T00:51:39.333Z,0
2016-07-25T00:52:40.084Z,0
2016-07-25T00:53:39.397Z,0
2016-07-25T00:54:39.487Z,0
2016-07-25T00:55:40.873Z,0
2016-07-25T00:56:40.194Z,0
2016-07-25T00:57:39.524Z,0
2016-07-25T00:58:39.575Z,0
2016-07-25T00:59:39.580Z,0
2016-07-25T01:00:40.320Z,0
2016-07-25T01:01:39.639Z,0
2016-07-25T01:02:39.670Z,0
2016-07-25T01:03:39.695Z,0
2016-07-25T01:04:40.451Z,0
2016-07-25T01:05:39.759Z,0
2016-07-25T01:06:39.789Z,0
2016-07-25T01:07:39.822Z,0
2016-07-25T01:08:40.559Z,0
2016-07-25T01:09:39.903Z,0
2016-07-25T01:10:39.921Z,0
2016-07-25T01:11:40.655Z,0
2016-07-25T01:12:39.972Z,0
2016-07-25T01:13:40.002Z,0
2016-07-25T01:14:40.235Z,0
2016-07-25T01:15:40.065Z,0
2016-07-25T01:16:40.836Z,0
2016-07-25T01:17:40.839Z,0
2016-07-25T01:18:40.153Z,0
2016-07-25T01:19:40.185Z,0
2016-07-25T01:20:40.238Z,0
2016-07-25T01:21:40.249Z,0
2016-07-25T01:22:40.275Z,0
2016-07-25T01:23:40.314Z,0
2016-07-25T01:24:40.336Z,0
2016-07-25T01:25:40.363Z,0
2016-07-25T01:26:41.109Z,0
2016-07-25T01:27:41.145Z,0
2016-07-25T01:28:40.458Z,0
2016-07-25T01:29:40.485Z,0
2016-07-25T01:30:40.521Z,0
2016-07-25T01:31:40.546Z,0
2016-07-25T01:32:40.602Z,0
2016-07-25T01:33:40.610Z,0
2016-07-25T01:34:40.644Z,0
2016-07-25T01:35:40.674Z,0
2016-07-25T01:36:41.409Z,0
2016-07-25T01:37:40.731Z,0
2016-07-25T01:38:40.759Z,0
2016-07-25T01:39:40.813Z,0
2016-07-25T01:40:40.833Z,0
2016-07-25T01:41:40.849Z,0
2016-07-25T01:42:41.592Z,0
2016-07-25T01:43:40.943Z,0
2016-07-25T01:44:40.939Z,0
2016-07-25T01:45:41.683Z,0
2016-07-25T01:46:41.004Z,0
2016-07-25T01:47:41.038Z,0
2016-07-25T01:48:41.059Z,0
2016-07-25T01:49:41.804Z,0
2016-07-25T01:50:41.140Z,0
2016-07-25T01:51:41.160Z,0
2016-07-25T01:52:41.186Z,0
2016-07-25T01:53:41.213Z,0
2016-07-25T01:54:41.298Z,0
2016-07-25T01:55:41.370Z,0
2016-07-25T01:56:42.020Z,0
2016-07-25T01:57:41.345Z,0
2016-07-25T01:58:42.078Z,0
2016-07-25T01:59:41.398Z,0
2016-07-25T02:00:41.428Z,0
2016-07-25T02:01:41.453Z,0
2016-07-25T02:02:41.498Z,0
2016-07-25T02:03:41.519Z,0
2016-07-25T02:04:41.551Z,0
2016-07-25T02:05:41.578Z,0
2016-07-25T02:06:41.612Z,0
2016-07-25T02:07:42.347Z,0
2016-07-25T02:08:42.381Z,0
2016-07-25T02:09:41.697Z,0
2016-07-25T02:10:41.727Z,0
2016-07-25T02:11:41.760Z,0
2016-07-25T02:12:41.801Z,0
2016-07-25T02:13:42.646Z,0
2016-07-25T02:14:41.861Z,0
2016-07-25T02:15:41.886Z,0
2016-07-25T02:16:41.910Z,0
2016-07-25T02:17:41.941Z,0
2016-07-25T02:18:41.970Z,0
2016-07-25T02:19:42.003Z,0
2016-07-25T02:20:42.756Z,0
2016-07-25T02:21:42.064Z,0
2016-07-25T02:22:42.110Z,0
2016-07-25T02:23:42.122Z,0
2016-07-25T02:24:42.154Z,0
2016-07-25T02:25:42.183Z,0
2016-07-25T02:26:42.216Z,0
2016-07-25T02:27:42.956Z,0
2016-07-25T02:28:42.277Z,0
2016-07-25T02:29:42.302Z,0
2016-07-25T02:30:43.045Z,0
2016-07-25T02:31:42.383Z,0
2016-07-25T02:32:43.105Z,0
2016-07-25T02:33:42.424Z,0
2016-07-25T02:34:42.456Z,0
2016-07-25T02:35:43.195Z,0
2016-07-25T02:36:42.518Z,0
2016-07-25T02:37:43.264Z,0
2016-07-25T02:38:42.584Z,0
2016-07-25T02:39:42.607Z,0
2016-07-25T02:40:42.649Z,0
2016-07-25T02:41:42.712Z,0
2016-07-25T02:42:42.751Z,0
2016-07-25T02:43:43.517Z,0
2016-07-25T02:44:42.764Z,0
2016-07-25T02:45:42.796Z,0
2016-07-25T02:46:42.831Z,0
2016-07-25T02:47:45.051Z,0
2016-07-25T02:48:42.893Z,0
2016-07-25T02:49:42.917Z,0
2016-07-25T02:50:42.943Z,0
2016-07-25T02:51:43.683Z,0
2016-07-25T02:52:43.221Z,0
2016-07-25T02:53:43.045Z,0
2016-07-25T02:54:43.903Z,0
2016-07-25T02:55:43.095Z,0
2016-07-25T02:56:43.124Z,0
2016-07-25T02:57:43.154Z,0
2016-07-25T02:58:43.946Z,0
2016-07-25T02:59:43.218Z,0
2016-07-25T03:00:43.243Z,0
2016-07-25T03:01:43.996Z,0
2016-07-25T03:02:44.025Z,0
2016-07-25T03:03:43.389Z,0
2016-07-25T03:04:44.188Z,0
2016-07-25T03:05:43.398Z,0
2016-07-25T03:06:43.430Z,0
2016-07-25T03:07:43.459Z,0
2016-07-25T03:08:44.372Z,0
2016-07-25T03:09:43.517Z,0
2016-07-25T03:10:43.550Z,0
2016-07-25T03:11:43.676Z,0
2016-07-25T03:12:44.321Z,0
2016-07-25T03:13:43.639Z,0
2016-07-25T03:14:44.381Z,0
2016-07-25T03:15:45.264Z,0
2016-07-25T03:16:43.728Z,0
2016-07-25T03:17:45.894Z,0
2016-07-25T03:18:43.810Z,0
2016-07-25T03:19:43.942Z,0
2016-07-25T03:20:43.919Z,0
2016-07-25T03:21:44.595Z,0
2016-07-25T03:22:43.910Z,0
2016-07-25T03:23:43.942Z,0
2016-07-25T03:24:43.968Z,0
2016-07-25T03:25:44.003Z,0
2016-07-25T03:26:44.033Z,0
2016-07-25T03:27:44.062Z,0
2016-07-25T03:28:44.178Z,0
2016-07-25T03:29:44.131Z,0
2016-07-25T03:30:44.224Z,0
2016-07-25T03:31:44.339Z,0
2016-07-25T03:32:45.346Z,0
2016-07-25T03:33:44.256Z,0
2016-07-25T03:34:44.302Z,0
2016-07-25T03:35:44.315Z,0
2016-07-25T03:36:44.332Z,0
2016-07-25T03:37:45.072Z,0
2016-07-25T03:38:45.813Z,0
2016-07-25T03:39:44.420Z,4
2016-07-25T03:40:44.449Z,0
2016-07-25T03:41:44.484Z,4
2016-07-25T03:42:44.522Z,0
2016-07-25T03:43:44.548Z,4
2016-07-25T03:44:45.284Z,0
2016-07-25T03:45:44.603Z,4
2016-07-25T03:46:45.345Z,0
2016-07-25T03:47:45.389Z,4
2016-07-25T03:48:44.694Z,0
2016-07-25T03:49:44.727Z,0
2016-07-25T03:50:44.760Z,0
2016-07-25T03:51:44.819Z,4
2016-07-25T03:52:44.818Z,4
2016-07-25T03:53:44.855Z,4
2016-07-25T03:54:44.878Z,0
2016-07-25T03:55:44.904Z,0
2016-07-25T03:56:44.936Z,4
2016-07-25T03:57:44.965Z,4
2016-07-25T03:58:45.001Z,4
2016-07-25T03:59:45.028Z,4
2016-07-25T04:00:45.061Z,4
2016-07-25T04:01:45.087Z,4
2016-07-25T04:02:45.117Z,8
2016-07-25T04:03:45.150Z,4
2016-07-25T04:04:45.891Z,4
2016-07-25T04:05:45.206Z,8
2016-07-25T04:06:45.958Z,8
2016-07-25T04:07:46.028Z,4
2016-07-25T04:08:48.228Z,8
2016-07-25T04:09:46.642Z,4
2016-07-25T04:10:45.370Z,8
2016-07-25T04:11:45.400Z,8
2016-07-25T04:12:46.143Z,4
2016-07-25T04:13:45.460Z,8
2016-07-25T04:14:46.189Z,4
2016-07-25T04:15:46.225Z,8
2016-07-25T04:16:45.552Z,8
2016-07-25T04:17:46.282Z,8
2016-07-25T04:18:45.615Z,8
2016-07-25T04:19:45.632Z,8
2016-07-25T04:20:45.672Z,8
2016-07-25T04:21:45.855Z,8
2016-07-25T04:22:46.483Z,8
2016-07-25T04:23:45.761Z,4
2016-07-25T04:24:47.200Z,8
2016-07-25T04:25:45.812Z,8
2016-07-25T04:26:46.596Z,8
2016-07-25T04:27:46.016Z,8
2016-07-25T04:28:46.050Z,8
2016-07-25T04:29:45.933Z,8
2016-07-25T04:30:46.674Z,8
2016-07-25T04:31:45.992Z,8
2016-07-25T04:32:46.027Z,12
2016-07-25T04:33:46.759Z,8
2016-07-25T04:34:46.096Z,12
2016-07-25T04:35:46.116Z,8
2016-07-25T04:36:46.867Z,12
2016-07-25T04:37:46.177Z,12
2016-07-25T04:38:46.253Z,12
2016-07-25T04:39:46.949Z,12
2016-07-25T04:40:46.982Z,12
2016-07-25T04:41:46.299Z,8
2016-07-25T04:42:46.332Z,12
2016-07-25T04:43:47.790Z,12
2016-07-25T04:44:47.090Z,8
2016-07-25T04:45:46.417Z,12
2016-07-25T04:46:46.448Z,12
2016-07-25T04:47:46.550Z,12
2016-07-25T04:48:47.399Z,12
2016-07-25T04:49:46.537Z,8
2016-07-25T04:50:46.587Z,12
2016-07-25T04:51:46.608Z,12
2016-07-25T04:52:46.622Z,8
2016-07-25T04:53:47.416Z,12
2016-07-25T04:54:46.686Z,12
2016-07-25T04:55:46.723Z,8
2016-07-25T04:56:47.462Z,12
2016-07-25T04:57:46.802Z,16
2016-07-25T04:58:46.807Z,16
2016-07-25T04:59:46.846Z,16
2016-07-25T05:00:47.643Z,12
2016-07-25T05:01:46.966Z,16
2016-07-25T05:02:47.648Z,16
2016-07-25T05:03:47.671Z,16
2016-07-25T05:04:46.998Z,16
2016-07-25T05:05:47.025Z,20
2016-07-25T05:06:47.052Z,16
2016-07-25T05:07:47.081Z,20
2016-07-25T05:08:47.823Z,20
2016-07-25T05:09:47.144Z,16
2016-07-25T05:10:47.881Z,12
2016-07-25T05:11:47.203Z,16
2016-07-25T05:12:47.232Z,12
2016-07-25T05:13:47.264Z,12
2016-07-25T05:14:48.001Z,12
2016-07-25T05:15:48.051Z,12
2016-07-25T05:16:47.354Z,12
2016-07-25T05:17:47.392Z,8
2016-07-25T05:18:47.411Z,12
2016-07-25T05:19:47.442Z,8
2016-07-25T05:20:48.189Z,12
2016-07-25T05:21:47.504Z,8
2016-07-25T05:22:47.539Z,8
2016-07-25T05:23:48.279Z,8
2016-07-25T05:24:47.595Z,8
2016-07-25T05:25:47.624Z,12
2016-07-25T05:26:47.654Z,8
2016-07-25T05:27:47.682Z,8
2016-07-25T05:28:47.713Z,12
2016-07-25T05:29:47.745Z,8
2016-07-25T05:30:47.778Z,8
2016-07-25T05:31:47.826Z,8
2016-07-25T05:32:47.849Z,8
2016-07-25T05:33:47.870Z,8
2016-07-25T05:34:47.899Z,12
2016-07-25T05:35:47.926Z,12
2016-07-25T05:36:47.961Z,8
2016-07-25T05:37:51.306Z,8
2016-07-25T05:38:50.710Z,8
2016-07-25T05:39:48.845Z,8
2016-07-25T05:40:48.185Z,12
2016-07-25T05:41:48.144Z,8
2016-07-25T05:42:48.376Z,12
2016-07-25T05:43:49.103Z,12
2016-07-25T05:44:48.914Z,8
2016-07-25T05:45:48.958Z,12
2016-07-25T05:46:48.264Z,12
2016-07-25T05:47:48.292Z,12
2016-07-25T05:48:49.035Z,12
2016-07-25T05:49:48.375Z,12
2016-07-25T05:50:49.094Z,12
2016-07-25T05:51:49.126Z,8
2016-07-25T05:52:49.158Z,12
2016-07-25T05:53:48.490Z,12
2016-07-25T05:54:48.509Z,8
2016-07-25T05:55:48.562Z,12
2016-07-25T05:56:48.571Z,12
2016-07-25T05:57:48.600Z,8
2016-07-25T05:58:48.627Z,12
2016-07-25T05:59:48.661Z,12
2016-07-25T06:00:48.688Z,8
2016-07-25T06:01:48.723Z,8
2016-07-25T06:02:48.765Z,8
2016-07-25T06:03:49.508Z,8
2016-07-25T06:04:48.814Z,8
2016-07-25T06:05:48.841Z,8
2016-07-25T06:06:48.872Z,8
2016-07-25T06:07:48.902Z,8
2016-07-25T06:08:48.931Z,8
2016-07-25T06:09:50.390Z,8
2016-07-25T06:10:48.999Z,8
2016-07-25T06:11:49.027Z,8
2016-07-25T06:12:49.065Z,8
2016-07-25T06:13:49.794Z,8
2016-07-25T06:14:49.115Z,8
2016-07-25T06:15:49.860Z,8
2016-07-25T06:16:49.175Z,8
2016-07-25T06:17:49.209Z,8
2016-07-25T06:18:50.662Z,4
2016-07-25T06:19:49.274Z,8
2016-07-25T06:20:49.302Z,8
2016-07-25T06:21:49.331Z,8
2016-07-25T06:22:49.361Z,8
2016-07-25T06:23:49.391Z,8
2016-07-25T06:24:50.131Z,8
2016-07-25T06:25:49.464Z,8
2016-07-25T06:26:50.188Z,8
2016-07-25T06:27:49.510Z,8
2016-07-25T06:28:49.542Z,8
2016-07-25T06:29:49.594Z,8
2016-07-25T06:30:49.615Z,12
2016-07-25T06:31:50.344Z,12
2016-07-25T06:33:49.697Z,12
2016-07-25T06:34:49.734Z,16
2016-07-25T06:35:49.767Z,16
2016-07-25T06:36:49.800Z,16
2016-07-25T06:37:51.233Z,16
2016-07-25T06:38:49.846Z,20
2016-07-25T06:39:51.301Z,20
2016-07-25T06:40:49.900Z,20
2016-07-25T06:41:50.653Z,20
2016-07-25T06:42:50.673Z,20
2016-07-25T06:43:50.006Z,24
2016-07-25T06:44:50.024Z,24
2016-07-25T06:45:50.053Z,20
2016-07-25T06:46:50.110Z,24
2016-07-25T06:47:50.115Z,20
2016-07-25T06:48:50.145Z,20
2016-07-25T06:49:50.885Z,20
2016-07-25T06:50:50.211Z,20
2016-07-25T06:51:50.238Z,20
2016-07-25T06:52:50.264Z,24
2016-07-25T06:53:50.304Z,24
2016-07-25T06:54:50.327Z,20
2016-07-25T06:55:51.117Z,24
2016-07-25T06:56:51.102Z,20
2016-07-25T06:57:50.413Z,24
2016-07-25T06:58:50.464Z,28
2016-07-25T06:59:50.502Z,24
2016-07-25T07:00:51.215Z,28
2016-07-25T07:01:50.534Z,28
2016-07-25T07:02:51.276Z,28
2016-07-25T07:03:50.597Z,28
2016-07-25T07:04:50.628Z,24
2016-07-25T07:05:50.665Z,28
2016-07-25T07:06:51.405Z,32
2016-07-25T07:07:50.719Z,32
2016-07-25T07:08:51.461Z,32
2016-07-25T07:09:50.785Z,32
2016-07-25T07:10:50.807Z,32
2016-07-25T07:11:50.857Z,28
2016-07-25T07:12:50.867Z,28
2016-07-25T07:13:51.605Z,28
2016-07-25T07:14:51.641Z,28
2016-07-25T07:15:50.956Z,32
2016-07-25T07:16:51.698Z,36
2016-07-25T07:17:51.041Z,32
2016-07-25T07:18:51.050Z,40
2016-07-25T07:19:51.083Z,40
2016-07-25T07:20:51.113Z,40
2016-07-25T07:21:51.138Z,40
2016-07-25T07:22:51.180Z,40
2016-07-25T07:23:51.213Z,36
2016-07-25T07:24:51.245Z,36
2016-07-25T07:25:51.264Z,40
2016-07-25T07:26:51.292Z,36
2016-07-25T07:27:51.323Z,32
2016-07-25T07:28:51.354Z,36
2016-07-25T07:29:51.381Z,32
2016-07-25T07:30:52.140Z,36
2016-07-25T07:31:51.443Z,28
2016-07-25T07:32:52.192Z,32
2016-07-25T07:33:51.502Z,28
2016-07-25T07:34:51.546Z,24
2016-07-25T07:35:52.278Z,24
2016-07-25T07:36:51.598Z,20
2016-07-25T07:37:51.635Z,24
2016-07-25T07:38:51.655Z,24
2016-07-25T07:39:52.397Z,24
2016-07-25T07:40:51.734Z,24
2016-07-25T07:41:51.752Z,24
2016-07-25T07:42:51.780Z,20
2016-07-25T07:43:52.517Z,20
2016-07-25T07:44:51.841Z,24
2016-07-25T07:45:51.867Z,24
2016-07-25T07:46:51.908Z,24
2016-07-25T07:47:52.634Z,20
2016-07-25T07:48:51.961Z,24
2016-07-25T07:49:51.992Z,24
2016-07-25T07:50:52.025Z,20
2016-07-25T07:51:52.074Z,20
2016-07-25T07:52:52.791Z,24
2016-07-25T07:53:52.114Z,20
2016-07-25T07:54:52.191Z,20
2016-07-25T07:55:52.173Z,20
2016-07-25T07:56:52.210Z,20
2016-07-25T07:57:52.234Z,16
2016-07-25T07:58:53.008Z,20
2016-07-25T07:59:52.306Z,16
2016-07-25T08:00:53.038Z,20
2016-07-25T08:01:52.367Z,20
2016-07-25T08:02:52.389Z,20
2016-07-25T08:03:52.430Z,24
2016-07-25T08:05:07.342Z,24
2016-07-25T08:05:52.484Z,20
2016-07-25T08:06:52.508Z,20
2016-07-25T08:07:52.537Z,20
2016-07-25T08:08:53.278Z,24
2016-07-25T08:09:52.615Z,20
2016-07-25T08:10:52.635Z,20
2016-07-25T08:11:52.672Z,20
2016-07-25T08:12:53.409Z,20
2016-07-25T08:13:52.723Z,24
2016-07-25T08:14:52.773Z,24
2016-07-25T08:15:52.785Z,20
2016-07-25T08:16:52.818Z,24
2016-07-25T08:17:52.851Z,24
2016-07-25T08:18:52.927Z,24
2016-07-25T08:19:53.620Z,24
2016-07-25T08:20:52.939Z,24
2016-07-25T08:21:53.690Z,24
2016-07-25T08:22:52.995Z,28
2016-07-25T08:23:53.055Z,24
2016-07-25T08:24:53.913Z,24
2016-07-25T08:25:53.093Z,24
2016-07-25T08:26:53.123Z,28
2016-07-25T08:27:53.148Z,24
2016-07-25T08:28:53.181Z,24
2016-07-25T08:29:53.214Z,24
2016-07-25T08:30:53.254Z,24
2016-07-25T08:31:53.266Z,24
2016-07-25T08:32:53.311Z,24
2016-07-25T08:33:53.332Z,24
2016-07-25T08:34:53.366Z,24
2016-07-25T08:35:54.124Z,20
2016-07-25T08:36:54.126Z,24
2016-07-25T08:37:53.449Z,24
2016-07-25T08:38:53.484Z,24
2016-07-25T08:39:53.516Z,24
2016-07-25T08:40:53.540Z,24
2016-07-25T08:41:53.564Z,24
2016-07-25T08:42:53.607Z,24
2016-07-25T08:43:53.627Z,20
2016-07-25T08:44:53.658Z,24
2016-07-25T08:45:53.688Z,24
2016-07-25T08:46:53.726Z,24
2016-07-25T08:47:53.754Z,24
2016-07-25T08:48:54.487Z,24
2016-07-25T08:49:54.517Z,24
2016-07-25T08:50:53.838Z,28
2016-07-25T08:51:53.865Z,28
2016-07-25T08:52:53.904Z,24
2016-07-25T08:53:53.954Z,28
2016-07-25T08:54:53.959Z,28
2016-07-25T08:55:54.739Z,32
2016-07-25T08:56:54.021Z,36
2016-07-25T08:57:54.048Z,36
2016-07-25T08:58:54.076Z,40
2016-07-25T08:59:54.110Z,40
2016-07-25T09:00:54.847Z,44
2016-07-25T09:01:54.171Z,44
2016-07-25T09:02:54.214Z,48
2016-07-25T09:03:55.088Z,44
2016-07-25T09:04:54.266Z,48
2016-07-25T09:05:54.304Z,48
2016-07-25T09:06:55.043Z,52
2016-07-25T09:07:54.347Z,52
2016-07-25T09:08:54.374Z,52
2016-07-25T09:09:54.407Z,52
2016-07-25T09:10:55.852Z,52
2016-07-25T09:11:55.178Z,52
2016-07-25T09:12:54.491Z,52
2016-07-25T09:13:54.546Z,52
2016-07-25T09:14:55.261Z,60
2016-07-25T09:15:54.587Z,60
2016-07-25T09:16:54.616Z,60
2016-07-25T09:17:55.363Z,60
2016-07-25T09:18:54.671Z,64
2016-07-25T09:19:55.418Z,64
2016-07-25T09:20:54.756Z,68
2016-07-25T09:21:54.769Z,64
2016-07-25T09:22:55.507Z,72
2016-07-25T09:23:54.822Z,68
2016-07-25T09:24:54.854Z,64
2016-07-25T09:25:55.590Z,68
2016-07-25T09:26:54.913Z,68
2016-07-25T09:27:54.960Z,68
2016-07-25T09:28:54.974Z,68
2016-07-25T09:29:55.004Z,64
2016-07-25T09:30:55.063Z,68
2016-07-25T09:31:55.063Z,68
2016-07-25T09:32:55.099Z,72
2016-07-25T09:33:55.128Z,68
2016-07-25T09:34:56.573Z,72
2016-07-25T09:35:55.186Z,68
2016-07-25T09:36:55.212Z,76
2016-07-25T09:37:55.261Z,76
2016-07-25T09:38:55.280Z,80
2016-07-25T09:39:55.319Z,84
2016-07-25T09:40:55.330Z,88
2016-07-25T09:41:55.364Z,92
2016-07-25T09:42:55.402Z,92
2016-07-25T09:43:55.424Z,88
2016-07-25T09:44:55.466Z,92
2016-07-25T09:45:56.202Z,92
2016-07-25T09:46:56.221Z,96
2016-07-25T09:47:55.543Z,100
2016-07-25T09:48:55.574Z,108
2016-07-25T09:49:55.603Z,116
2016-07-25T09:50:55.630Z,112
2016-07-25T09:51:55.671Z,108
2016-07-25T09:52:56.416Z,116
2016-07-25T09:53:56.433Z,112
2016-07-25T09:54:56.463Z,112
2016-07-25T09:55:55.783Z,112
2016-07-25T09:56:55.813Z,112
2016-07-25T09:57:55.844Z,116
2016-07-25T09:58:55.875Z,112
2016-07-25T09:59:55.912Z,104
2016-07-25T10:00:56.644Z,112
2016-07-25T10:01:55.978Z,116
2016-07-25T10:02:56.713Z,120
2016-07-25T10:03:56.024Z,132
2016-07-25T10:04:56.055Z,200
2016-07-25T10:05:56.080Z,268
2016-07-25T10:06:56.121Z,196
2016-07-25T10:07:56.142Z,184
2016-07-25T10:08:56.180Z,192
2016-07-25T10:09:56.210Z,184
2016-07-25T10:10:56.945Z,192
2016-07-25T10:11:56.266Z,200
2016-07-25T10:12:57.003Z,208
2016-07-25T10:13:56.326Z,200
2016-07-25T10:14:56.358Z,196
2016-07-25T10:15:57.212Z,176
2016-07-25T10:16:56.419Z,204
2016-07-25T10:17:57.157Z,228
2016-07-25T10:18:56.499Z,236
2016-07-25T10:19:57.218Z,240
2016-07-25T10:20:56.541Z,248
2016-07-25T10:21:56.571Z,244
2016-07-25T10:22:56.601Z,244
2016-07-25T10:23:56.628Z,232
2016-07-25T10:24:56.668Z,224
2016-07-25T10:25:57.433Z,212
2016-07-25T10:26:56.726Z,196
2016-07-25T10:27:56.754Z,192
2016-07-25T10:28:56.794Z,180
2016-07-25T10:29:56.827Z,168
2016-07-25T10:30:57.559Z,116
2016-07-25T10:31:56.879Z,140
2016-07-25T10:32:56.909Z,148
2016-07-25T10:33:57.654Z,132
2016-07-25T10:34:57.174Z,204
2016-07-25T10:35:57.025Z,212
2016-07-25T10:36:57.047Z,184
2016-07-25T10:37:57.070Z,192
2016-07-25T10:38:58.518Z,204
2016-07-25T10:39:57.128Z,204
2016-07-25T10:40:57.167Z,244
2016-07-25T10:41:57.983Z,252
2016-07-25T10:42:57.232Z,244
2016-07-25T10:43:57.270Z,152
2016-07-25T10:44:57.286Z,96
2016-07-25T10:45:57.322Z,84
2016-07-25T10:46:57.350Z,88
2016-07-25T10:47:57.384Z,92
2016-07-25T10:48:58.137Z,100
2016-07-25T10:49:58.159Z,120
2016-07-25T10:50:57.482Z,152
2016-07-25T10:51:57.516Z,132
2016-07-25T10:52:58.251Z,156
2016-07-25T10:53:57.573Z,216
2016-07-25T10:54:58.315Z,144
2016-07-25T10:55:57.634Z,124
2016-07-25T10:56:59.092Z,128
2016-07-25T10:57:57.719Z,100
2016-07-25T10:58:57.729Z,100
2016-07-25T10:59:57.795Z,104
2016-07-25T11:00:57.797Z,96
2016-07-25T11:01:57.819Z,100
2016-07-25T11:02:57.857Z,104
2016-07-25T11:03:58.598Z,100
2016-07-25T11:04:57.920Z,112
2016-07-25T11:05:57.960Z,112
2016-07-25T11:06:58.699Z,144
2016-07-25T11:07:58.036Z,132
2016-07-25T11:08:58.043Z,128
2016-07-25T11:09:58.078Z,136
2016-07-25T11:10:58.108Z,116
2016-07-25T11:11:58.853Z,124
2016-07-25T11:12:58.169Z,136
2016-07-25T11:13:58.203Z,136
2016-07-25T11:14:58.237Z,172
2016-07-25T11:15:58.276Z,176
2016-07-25T11:16:58.322Z,176
2016-07-25T11:17:58.342Z,192
2016-07-25T11:18:59.072Z,184
2016-07-25T11:19:58.395Z,204
2016-07-25T11:20:59.136Z,176
2016-07-25T11:21:58.454Z,140
2016-07-25T11:22:58.489Z,152
2016-07-25T11:23:58.530Z,188
2016-07-25T11:24:58.556Z,204
2016-07-25T11:25:58.587Z,212
2016-07-25T11:26:58.612Z,216
2016-07-25T11:27:58.651Z,216
2016-07-25T11:28:58.683Z,220
2016-07-25T11:29:58.715Z,216
2016-07-25T11:30:58.752Z,216
2016-07-25T11:31:58.773Z,220
2016-07-25T11:32:58.811Z,224
2016-07-25T11:33:58.847Z,220
2016-07-25T11:34:58.872Z,220
2016-07-25T11:35:58.909Z,212
2016-07-25T11:36:59.018Z,200
2016-07-25T11:37:58.972Z,192
2016-07-25T11:38:58.998Z,196
2016-07-25T11:39:59.753Z,196
2016-07-25T11:40:59.068Z,200
2016-07-25T11:41:59.099Z,196
2016-07-25T11:42:59.148Z,188
2016-07-25T11:43:59.162Z,192
2016-07-25T11:44:59.196Z,192
2016-07-25T11:45:59.229Z,200
2016-07-25T11:46:59.264Z,204
2016-07-25T11:47:59.293Z,212
2016-07-25T11:48:59.332Z,208
2016-07-25T11:49:59.358Z,212
2016-07-25T11:50:59.394Z,196
2016-07-25T11:52:59.506Z,180
2016-07-25T11:53:59.485Z,200
2016-07-25T11:55:00.247Z,160
2016-07-25T11:56:00.264Z,124
2016-07-25T11:57:00.300Z,112
2016-07-25T11:58:00.330Z,128
2016-07-25T11:58:59.652Z,164
2016-07-25T11:59:59.687Z,192
2016-07-25T12:01:00.436Z,196
2016-07-25T12:01:59.746Z,192
2016-07-25T12:02:59.784Z,192
2016-07-25T12:03:59.814Z,184
2016-07-25T12:05:00.570Z,176
2016-07-25T12:05:59.881Z,196
2016-07-25T12:06:59.932Z,200
2016-07-25T12:07:59.953Z,200
2016-07-25T12:08:59.983Z,204
2016-07-25T12:10:00.028Z,212
2016-07-25T12:11:00.046Z,180
2016-07-25T12:12:00.082Z,196
2016-07-25T12:13:00.128Z,192
2016-07-25T12:14:00.151Z,184
2016-07-25T12:15:00.182Z,180
2016-07-25T12:16:00.215Z,120
2016-07-25T12:17:00.263Z,176
2016-07-25T12:18:00.279Z,96
2016-07-25T12:19:00.313Z,200
2016-07-25T12:20:00.356Z,172
2016-07-25T12:21:00.386Z,200
2016-07-25T12:22:00.415Z,208
2016-07-25T12:23:00.482Z,204
2016-07-25T12:24:01.197Z,128
2016-07-25T12:25:01.220Z,172
2016-07-25T12:26:00.544Z,212
2016-07-25T12:27:01.292Z,200
2016-07-25T12:28:00.621Z,208
2016-07-25T12:29:01.363Z,212
2016-07-25T12:30:01.389Z,216
2016-07-25T12:31:00.726Z,216
2016-07-25T12:32:00.754Z,224
2016-07-25T12:33:00.784Z,240
2016-07-25T12:34:01.523Z,180
2016-07-25T12:35:00.842Z,176
2016-07-25T12:36:01.590Z,132
2016-07-25T12:37:02.368Z,124
2016-07-25T12:38:00.956Z,120
2016-07-25T12:39:00.980Z,132
2016-07-25T12:40:01.035Z,160
2016-07-25T12:41:01.048Z,128
2016-07-25T12:42:01.083Z,120
2016-07-25T12:43:01.831Z,124
2016-07-25T12:44:01.860Z,128
2016-07-25T12:45:01.180Z,124
2016-07-25T12:46:01.216Z,116
2016-07-25T12:47:01.256Z,116
2016-07-25T12:48:01.285Z,116
2016-07-25T12:49:02.025Z,128
2016-07-25T12:50:02.090Z,224
2016-07-25T12:51:02.093Z,140
2016-07-25T12:52:01.416Z,112
2016-07-25T12:53:01.450Z,100
2016-07-25T12:54:01.489Z,96
2016-07-25T12:55:01.571Z,96
2016-07-25T12:56:01.553Z,96
2016-07-25T12:57:01.582Z,108
2016-07-25T12:58:01.633Z,128
2016-07-25T12:59:01.667Z,140
2016-07-25T13:00:01.689Z,132
2016-07-25T13:01:02.441Z,124
2016-07-25T13:02:01.754Z,124
2016-07-25T13:03:01.789Z,128
2016-07-25T13:04:02.550Z,176
2016-07-25T13:05:01.858Z,196
2016-07-25T13:06:01.910Z,180
2016-07-25T13:07:01.931Z,140
2016-07-25T13:08:01.957Z,148
2016-07-25T13:09:01.989Z,140
2016-07-25T13:10:02.737Z,168
2016-07-25T13:11:02.057Z,180
2016-07-25T13:12:02.823Z,184
2016-07-25T13:13:02.849Z,128
2016-07-25T13:14:02.162Z,104
2016-07-25T13:15:02.195Z,124
2016-07-25T13:16:02.241Z,184
2016-07-25T13:17:02.263Z,184
2016-07-25T13:18:02.297Z,184
2016-07-25T13:19:02.329Z,172
2016-07-25T13:20:02.363Z,172
2016-07-25T13:21:02.411Z,176
2016-07-25T13:22:02.439Z,112
2016-07-25T13:23:03.171Z,144
2016-07-25T13:24:02.518Z,112
2016-07-25T13:25:03.239Z,100
2016-07-25T13:26:03.989Z,108
2016-07-25T13:27:02.618Z,100
2016-07-25T13:28:02.633Z,96
2016-07-25T13:29:03.380Z,116
2016-07-25T13:30:02.743Z,116
2016-07-25T13:31:03.447Z,108
2016-07-25T13:32:03.476Z,124
2016-07-25T13:33:02.849Z,172
2016-07-25T13:34:03.551Z,176
2016-07-25T13:35:02.872Z,128
2016-07-25T13:36:02.903Z,136
2016-07-25T13:37:02.953Z,156
2016-07-25T13:38:03.683Z,104
2016-07-25T13:39:03.015Z,88
2016-07-25T13:40:03.095Z,84
2016-07-25T13:41:03.076Z,92
2016-07-25T13:42:03.116Z,116
2016-07-25T13:43:03.141Z,128
2016-07-25T13:44:03.177Z,148
2016-07-25T13:45:03.303Z,148
2016-07-25T13:46:03.954Z,148
2016-07-25T13:47:03.289Z,156
2016-07-25T13:48:03.314Z,128
2016-07-25T13:49:03.459Z,136
2016-07-25T13:50:03.474Z,160
2016-07-25T13:51:03.419Z,160
2016-07-25T13:52:03.457Z,96
2016-07-25T13:53:04.204Z,108
2016-07-25T13:54:03.519Z,80
2016-07-25T13:55:03.825Z,72
2016-07-25T13:56:03.601Z,76
2016-07-25T13:57:03.625Z,84
2016-07-25T13:58:04.370Z,100
2016-07-25T13:59:04.405Z,88
2016-07-25T14:00:03.722Z,80
2016-07-25T14:01:03.758Z,68
2016-07-25T14:02:04.547Z,64
2016-07-25T14:03:04.534Z,64
2016-07-25T14:04:03.874Z,68
2016-07-25T14:05:04.602Z,76
2016-07-25T14:06:04.635Z,96
2016-07-25T14:07:03.961Z,108
2016-07-25T14:08:03.993Z,88
2016-07-25T14:09:04.029Z,88
2016-07-25T14:10:04.070Z,100
2016-07-25T14:11:04.802Z,84
2016-07-25T14:12:04.844Z,76
2016-07-25T14:13:04.194Z,92
2016-07-25T14:14:04.198Z,88
2016-07-25T14:15:04.231Z,136
2016-07-25T14:16:04.970Z,132
2016-07-25T14:17:04.297Z,128
2016-07-25T14:18:04.329Z,128
2016-07-25T14:19:04.368Z,124
2016-07-25T14:20:05.119Z,124
2016-07-25T14:21:04.436Z,104